sensor_id;sensor_type;location;lat;lon;timestamp;pressure;altitude;pressure_sealevel;temperature;humidity
41632;BME280;37452;51.938;4.624;2022-09-27T00:01:36;76082.13;;;-142.75;100.00
41632;BME280;37452;51.938;4.624;2022-09-27T00:04:01;76072.31;;;-142.75;100.00
41632;BME280;37452;51.938;4.624;2022-09-27T00:06:27;76082.13;;;-142.75;100.00
41632;BME280;37452;51.938;4.624;2022-09-27T00:08:53;76074.25;;;-142.75;100.00
41632;BME280;37452;51.938;4.624;2022-09-27T00:11:26;76090.00;;;-142.75;100.00
41632;BME280;37452;51.938;4.624;2022-09-27T00:13:52;76090.00;;;-142.75;100.00
41632;BME280;37452;51.938;4.624;2022-09-27T00:16:20;76093.94;;;-142.75;100.00
41632;BME280;37452;51.938;4.624;2022-09-27T00:18:45;76097.88;;;-142.75;100.00
41632;BME280;37452;51.938;4.624;2022-09-27T00:21:11;76097.88;;;-142.75;100.00
41632;BME280;37452;51.938;4.624;2022-09-27T00:23:37;76097.88;;;-142.75;100.00
41632;BME280;37452;51.938;4.624;2022-09-27T00:26:03;76109.69;;;-142.75;100.00
41632;BME280;37452;51.938;4.624;2022-09-27T00:28:28;76121.50;;;-142.75;100.00
41632;BME280;37452;51.938;4.624;2022-09-27T00:30:55;76097.88;;;-142.75;100.00
41632;BME280;37452;51.938;4.624;2022-09-27T00:33:20;76109.69;;;-142.75;100.00
41632;BME280;37452;51.938;4.624;2022-09-27T00:35:45;76113.63;;;-142.75;100.00
41632;BME280;37452;51.938;4.624;2022-09-27T00:38:11;76113.63;;;-142.75;100.00
41632;BME280;37452;51.938;4.624;2022-09-27T00:40:37;76109.69;;;-142.75;100.00
41632;BME280;37452;51.938;4.624;2022-09-27T00:43:04;76111.66;;;-142.75;100.00
41632;BME280;37452;51.938;4.624;2022-09-27T00:45:33;76113.63;;;-142.75;100.00
41632;BME280;37452;51.938;4.624;2022-09-27T00:47:59;76125.44;;;-142.75;100.00
41632;BME280;37452;51.938;4.624;2022-09-27T00:50:27;76139.22;;;-142.75;100.00
41632;BME280;37452;51.938;4.624;2022-09-27T00:52:56;76154.97;;;-142.75;100.00
41632;BME280;37452;51.938;4.624;2022-09-27T00:55:25;76145.13;;;-142.75;100.00
41632;BME280;37452;51.938;4.624;2022-09-27T00:57:51;76137.25;;;-142.75;100.00
41632;BME280;37452;51.938;4.624;2022-09-27T01:00:17;76141.19;;;-142.75;100.00
41632;BME280;37452;51.938;4.624;2022-09-27T01:02:46;76121.50;;;-142.75;100.00
41632;BME280;37452;51.938;4.624;2022-09-27T01:05:14;76131.34;;;-142.75;100.00
41632;BME280;37452;51.938;4.624;2022-09-27T01:07:40;76129.38;;;-142.75;100.00
41632;BME280;37452;51.938;4.624;2022-09-27T01:10:05;76133.31;;;-142.75;100.00
41632;BME280;37452;51.938;4.624;2022-09-27T01:12:51;76131.34;;;-142.75;100.00
41632;BME280;37452;51.938;4.624;2022-09-27T01:15:24;76123.47;;;-142.75;100.00
41632;BME280;37452;51.938;4.624;2022-09-27T01:18:01;76129.38;;;-142.75;100.00
41632;BME280;37452;51.938;4.624;2022-09-27T01:25:57;76133.31;;;-142.75;100.00
41632;BME280;37452;51.938;4.624;2022-09-27T01:31:07;76145.13;;;-142.75;100.00
41632;BME280;37452;51.938;4.624;2022-09-27T01:36:13;76139.22;;;-142.75;100.00
41632;BME280;37452;51.938;4.624;2022-09-27T01:38:50;76123.47;;;-142.75;100.00
41632;BME280;37452;51.938;4.624;2022-09-27T01:44:14;76129.38;;;-142.75;100.00
41632;BME280;37452;51.938;4.624;2022-09-27T01:46:43;76137.25;;;-142.75;100.00
41632;BME280;37452;51.938;4.624;2022-09-27T01:49:12;76145.13;;;-142.75;100.00
41632;BME280;37452;51.938;4.624;2022-09-27T01:51:47;76143.16;;;-142.75;100.00
41632;BME280;37452;51.938;4.624;2022-09-27T01:54:18;76137.25;;;-142.75;100.00
41632;BME280;37452;51.938;4.624;2022-09-27T01:56:48;76135.28;;;-142.75;100.00
41632;BME280;37452;51.938;4.624;2022-09-27T02:01:41;76119.53;;;-142.75;100.00
41632;BME280;37452;51.938;4.624;2022-09-27T02:04:09;76119.53;;;-142.75;100.00
41632;BME280;37452;51.938;4.624;2022-09-27T02:06:39;76107.72;;;-142.75;100.00
41632;BME280;37452;51.938;4.624;2022-09-27T02:09:12;76105.75;;;-142.75;100.00
41632;BME280;37452;51.938;4.624;2022-09-27T02:11:40;76103.78;;;-142.75;100.00
41632;BME280;37452;51.938;4.624;2022-09-27T02:14:14;76090.00;;;-142.75;100.00
41632;BME280;37452;51.938;4.624;2022-09-27T02:16:49;76082.13;;;-142.75;100.00
41632;BME280;37452;51.938;4.624;2022-09-27T02:24:28;76095.91;;;-142.75;100.00
41632;BME280;37452;51.938;4.624;2022-09-27T02:26:58;76105.75;;;-142.75;100.00
41632;BME280;37452;51.938;4.624;2022-09-27T02:29:28;76101.81;;;-142.75;100.00
41632;BME280;37452;51.938;4.624;2022-09-27T02:31:58;76113.63;;;-142.75;100.00
41632;BME280;37452;51.938;4.624;2022-09-27T02:34:24;76153.00;;;-142.75;100.00
41632;BME280;37452;51.938;4.624;2022-09-27T02:36:51;76174.66;;;-142.75;100.00
41632;BME280;37452;51.938;4.624;2022-09-27T02:39:17;76190.41;;;-142.75;100.00
41632;BME280;37452;51.938;4.624;2022-09-27T02:41:43;76204.16;;;-142.75;100.00
41632;BME280;37452;51.938;4.624;2022-09-27T02:44:09;76219.91;;;-142.75;100.00
41632;BME280;37452;51.938;4.624;2022-09-27T02:46:42;76212.03;;;-142.75;100.00
41632;BME280;37452;51.938;4.624;2022-09-27T02:56:34;76174.66;;;-142.75;100.00
41632;BME280;37452;51.938;4.624;2022-09-27T03:04:23;76180.56;;;-142.75;100.00
41632;BME280;37452;51.938;4.624;2022-09-27T03:06:49;76184.50;;;-142.75;100.00
41632;BME280;37452;51.938;4.624;2022-09-27T03:09:22;76170.72;;;-142.75;100.00
41632;BME280;37452;51.938;4.624;2022-09-27T03:11:48;76151.03;;;-142.75;100.00
41632;BME280;37452;51.938;4.624;2022-09-27T03:14:13;76147.09;;;-142.75;100.00
41632;BME280;37452;51.938;4.624;2022-09-27T03:16:39;76149.06;;;-142.75;100.00
41632;BME280;37452;51.938;4.624;2022-09-27T03:19:04;76145.13;;;-142.75;100.00
41632;BME280;37452;51.938;4.624;2022-09-27T03:21:29;76143.16;;;-142.75;100.00
41632;BME280;37452;51.938;4.624;2022-09-27T03:23:55;76145.13;;;-142.75;100.00
41632;BME280;37452;51.938;4.624;2022-09-27T03:26:20;76149.06;;;-142.75;100.00
41632;BME280;37452;51.938;4.624;2022-09-27T03:28:45;76131.34;;;-142.75;100.00
41632;BME280;37452;51.938;4.624;2022-09-27T03:31:11;76139.22;;;-142.75;100.00
41632;BME280;37452;51.938;4.624;2022-09-27T03:33:36;76137.25;;;-142.75;100.00
41632;BME280;37452;51.938;4.624;2022-09-27T03:36:01;76129.38;;;-142.75;100.00
41632;BME280;37452;51.938;4.624;2022-09-27T03:38:28;76149.06;;;-142.75;100.00
41632;BME280;37452;51.938;4.624;2022-09-27T03:40:53;76145.13;;;-142.75;100.00
41632;BME280;37452;51.938;4.624;2022-09-27T03:43:18;76147.09;;;-142.75;100.00
41632;BME280;37452;51.938;4.624;2022-09-27T03:45:43;76149.06;;;-142.75;100.00
41632;BME280;37452;51.938;4.624;2022-09-27T03:48:09;76164.81;;;-142.75;100.00
41632;BME280;37452;51.938;4.624;2022-09-27T03:50:34;76176.63;;;-142.75;100.00
41632;BME280;37452;51.938;4.624;2022-09-27T03:53:00;76180.56;;;-142.75;100.00
41632;BME280;37452;51.938;4.624;2022-09-27T03:55:25;76176.63;;;-142.75;100.00
41632;BME280;37452;51.938;4.624;2022-09-27T03:57:50;76184.50;;;-142.75;100.00
41632;BME280;37452;51.938;4.624;2022-09-27T04:00:15;76204.16;;;-142.75;100.00
41632;BME280;37452;51.938;4.624;2022-09-27T04:02:42;76192.38;;;-142.75;100.00
41632;BME280;37452;51.938;4.624;2022-09-27T04:05:08;76168.75;;;-142.75;100.00
41632;BME280;37452;51.938;4.624;2022-09-27T04:07:33;76160.88;;;-142.75;100.00
41632;BME280;37452;51.938;4.624;2022-09-27T04:09:58;76156.94;;;-142.75;100.00
41632;BME280;37452;51.938;4.624;2022-09-27T04:12:24;76180.56;;;-142.75;100.00
41632;BME280;37452;51.938;4.624;2022-09-27T04:14:49;76174.66;;;-142.75;100.00
41632;BME280;37452;51.938;4.624;2022-09-27T04:17:14;76172.69;;;-142.75;100.00
41632;BME280;37452;51.938;4.624;2022-09-27T04:19:39;76180.56;;;-142.75;100.00
41632;BME280;37452;51.938;4.624;2022-09-27T04:22:04;76192.38;;;-142.75;100.00
41632;BME280;37452;51.938;4.624;2022-09-27T04:24:29;76194.34;;;-142.75;100.00
41632;BME280;37452;51.938;4.624;2022-09-27T04:26:55;76192.38;;;-142.75;100.00
41632;BME280;37452;51.938;4.624;2022-09-27T04:29:21;76184.50;;;-142.75;100.00
41632;BME280;37452;51.938;4.624;2022-09-27T04:31:46;76176.63;;;-142.75;100.00
41632;BME280;37452;51.938;4.624;2022-09-27T04:34:11;76176.63;;;-142.75;100.00
41632;BME280;37452;51.938;4.624;2022-09-27T04:36:37;76192.38;;;-142.75;100.00
41632;BME280;37452;51.938;4.624;2022-09-27T04:39:03;76200.25;;;-142.75;100.00
41632;BME280;37452;51.938;4.624;2022-09-27T04:41:28;76196.31;;;-142.75;100.00
41632;BME280;37452;51.938;4.624;2022-09-27T04:43:54;76200.25;;;-142.75;100.00
41632;BME280;37452;51.938;4.624;2022-09-27T04:46:19;76188.44;;;-142.75;100.00
41632;BME280;37452;51.938;4.624;2022-09-27T04:48:45;76184.50;;;-142.75;100.00
41632;BME280;37452;51.938;4.624;2022-09-27T04:51:10;76176.63;;;-142.75;100.00
41632;BME280;37452;51.938;4.624;2022-09-27T04:53:36;76184.50;;;-142.75;100.00
41632;BME280;37452;51.938;4.624;2022-09-27T04:56:01;76184.50;;;-142.75;100.00
41632;BME280;37452;51.938;4.624;2022-09-27T04:58:30;76198.28;;;-142.75;100.00
41632;BME280;37452;51.938;4.624;2022-09-27T05:00:55;76198.28;;;-142.75;100.00
41632;BME280;37452;51.938;4.624;2022-09-27T05:03:21;76208.09;;;-142.75;100.00
41632;BME280;37452;51.938;4.624;2022-09-27T05:05:46;76200.25;;;-142.75;100.00
41632;BME280;37452;51.938;4.624;2022-09-27T05:08:11;76212.03;;;-142.75;100.00
41632;BME280;37452;51.938;4.624;2022-09-27T05:10:37;76231.72;;;-142.75;100.00
41632;BME280;37452;51.938;4.624;2022-09-27T05:13:02;76233.69;;;-142.75;100.00
41632;BME280;37452;51.938;4.624;2022-09-27T05:15:27;76241.56;;;-142.75;100.00
41632;BME280;37452;51.938;4.624;2022-09-27T05:17:53;76243.53;;;-142.75;100.00
41632;BME280;37452;51.938;4.624;2022-09-27T05:20:18;76241.56;;;-142.75;100.00
41632;BME280;37452;51.938;4.624;2022-09-27T05:22:44;76229.75;;;-142.75;100.00
41632;BME280;37452;51.938;4.624;2022-09-27T05:25:09;76235.66;;;-142.75;100.00
41632;BME280;37452;51.938;4.624;2022-09-27T05:27:35;76241.56;;;-142.75;100.00
41632;BME280;37452;51.938;4.624;2022-09-27T05:30:00;76227.78;;;-142.75;100.00
41632;BME280;37452;51.938;4.624;2022-09-27T05:32:26;76229.75;;;-142.75;100.00
41632;BME280;37452;51.938;4.624;2022-09-27T05:34:51;76223.84;;;-142.75;100.00
41632;BME280;37452;51.938;4.624;2022-09-27T05:37:17;76217.94;;;-142.75;100.00
41632;BME280;37452;51.938;4.624;2022-09-27T05:39:43;76227.78;;;-142.75;100.00
41632;BME280;37452;51.938;4.624;2022-09-27T05:42:08;76223.84;;;-142.75;100.00
41632;BME280;37452;51.938;4.624;2022-09-27T05:44:34;76210.06;;;-142.75;100.00
41632;BME280;37452;51.938;4.624;2022-09-27T05:47:00;76208.09;;;-142.75;100.00
41632;BME280;37452;51.938;4.624;2022-09-27T05:49:28;76223.84;;;-142.75;100.00
41632;BME280;37452;51.938;4.624;2022-09-27T05:51:53;76214.00;;;-142.75;100.00
41632;BME280;37452;51.938;4.624;2022-09-27T05:54:18;76229.75;;;-142.75;100.00
41632;BME280;37452;51.938;4.624;2022-09-27T05:56:43;76217.94;;;-142.75;100.00
41632;BME280;37452;51.938;4.624;2022-09-27T05:59:09;76210.06;;;-142.75;100.00
41632;BME280;37452;51.938;4.624;2022-09-27T06:01:34;76198.28;;;-142.75;100.00
41632;BME280;37452;51.938;4.624;2022-09-27T06:03:59;76210.06;;;-142.75;100.00
41632;BME280;37452;51.938;4.624;2022-09-27T06:06:25;76202.19;;;-142.75;100.00
41632;BME280;37452;51.938;4.624;2022-09-27T06:08:50;76206.13;;;-142.75;100.00
41632;BME280;37452;51.938;4.624;2022-09-27T06:11:15;76200.25;;;-142.75;100.00
41632;BME280;37452;51.938;4.624;2022-09-27T06:13:41;76198.28;;;-142.75;100.00
41632;BME280;37452;51.938;4.624;2022-09-27T06:16:07;76196.31;;;-142.75;100.00
41632;BME280;37452;51.938;4.624;2022-09-27T06:18:34;76198.28;;;-142.75;100.00
41632;BME280;37452;51.938;4.624;2022-09-27T06:20:59;76192.38;;;-142.75;100.00
41632;BME280;37452;51.938;4.624;2022-09-27T06:23:24;76196.31;;;-142.75;100.00
41632;BME280;37452;51.938;4.624;2022-09-27T06:25:50;76188.44;;;-142.75;100.00
41632;BME280;37452;51.938;4.624;2022-09-27T06:28:15;76204.16;;;-142.75;100.00
41632;BME280;37452;51.938;4.624;2022-09-27T06:30:42;76198.28;;;-142.75;100.00
41632;BME280;37452;51.938;4.624;2022-09-27T06:33:08;76192.38;;;-142.75;100.00
41632;BME280;37452;51.938;4.624;2022-09-27T06:35:35;76196.31;;;-142.75;100.00
41632;BME280;37452;51.938;4.624;2022-09-27T06:38:06;76186.47;;;-142.75;100.00
41632;BME280;37452;51.938;4.624;2022-09-27T06:40:33;76180.56;;;-142.75;100.00
41632;BME280;37452;51.938;4.624;2022-09-27T06:43:06;76174.66;;;-142.75;100.00
41632;BME280;37452;51.938;4.624;2022-09-27T06:45:34;76178.59;;;-142.75;100.00
41632;BME280;37452;51.938;4.624;2022-09-27T06:48:00;76180.56;;;-142.75;100.00
41632;BME280;37452;51.938;4.624;2022-09-27T06:50:27;76186.47;;;-142.75;100.00
41632;BME280;37452;51.938;4.624;2022-09-27T06:52:52;76196.31;;;-142.75;100.00
41632;BME280;37452;51.938;4.624;2022-09-27T06:55:17;76192.38;;;-142.75;100.00
41632;BME280;37452;51.938;4.624;2022-09-27T06:57:42;76176.63;;;-142.75;100.00
41632;BME280;37452;51.938;4.624;2022-09-27T07:00:26;76184.50;;;-142.75;100.00
41632;BME280;37452;51.938;4.624;2022-09-27T07:02:52;76186.47;;;-142.75;100.00
41632;BME280;37452;51.938;4.624;2022-09-27T07:05:18;76192.38;;;-142.75;100.00
41632;BME280;37452;51.938;4.624;2022-09-27T07:07:43;76194.34;;;-142.75;100.00
41632;BME280;37452;51.938;4.624;2022-09-27T07:10:09;76196.31;;;-142.75;100.00
41632;BME280;37452;51.938;4.624;2022-09-27T07:12:34;76204.16;;;-142.75;100.00
41632;BME280;37452;51.938;4.624;2022-09-27T07:15:00;76219.91;;;-142.75;100.00
41632;BME280;37452;51.938;4.624;2022-09-27T07:17:25;76239.59;;;-142.75;100.00
41632;BME280;37452;51.938;4.624;2022-09-27T07:19:51;76267.16;;;-142.75;100.00
41632;BME280;37452;51.938;4.624;2022-09-27T07:22:17;76275.03;;;-142.75;100.00
41632;BME280;37452;51.938;4.624;2022-09-27T07:24:42;76294.72;;;-142.75;100.00
41632;BME280;37452;51.938;4.624;2022-09-27T07:27:07;76278.97;;;-142.75;100.00
41632;BME280;37452;51.938;4.624;2022-09-27T07:29:32;76282.91;;;-142.75;100.00
41632;BME280;37452;51.938;4.624;2022-09-27T07:31:57;76275.03;;;-142.75;100.00
41632;BME280;37452;51.938;4.624;2022-09-27T07:34:22;76269.13;;;-142.75;100.00
41632;BME280;37452;51.938;4.624;2022-09-27T07:36:48;76261.25;;;-142.75;100.00
41632;BME280;37452;51.938;4.624;2022-09-27T07:39:13;76267.16;;;-142.75;100.00
41632;BME280;37452;51.938;4.624;2022-09-27T07:41:38;76263.22;;;-142.75;100.00
41632;BME280;37452;51.938;4.624;2022-09-27T07:44:06;76245.50;;;-142.75;100.00
41632;BME280;37452;51.938;4.624;2022-09-27T07:46:32;76243.53;;;-142.75;100.00
41632;BME280;37452;51.938;4.624;2022-09-27T07:48:58;76223.84;;;-142.75;100.00
41632;BME280;37452;51.938;4.624;2022-09-27T07:51:23;76229.75;;;-142.75;100.00
41632;BME280;37452;51.938;4.624;2022-09-27T07:53:49;76219.91;;;-142.75;100.00
41632;BME280;37452;51.938;4.624;2022-09-27T07:56:14;76217.94;;;-142.75;100.00
41632;BME280;37452;51.938;4.624;2022-09-27T07:58:39;76196.31;;;-142.75;100.00
41632;BME280;37452;51.938;4.624;2022-09-27T08:01:04;76184.50;;;-142.75;100.00
41632;BME280;37452;51.938;4.624;2022-09-27T08:03:29;76188.44;;;-142.75;100.00
41632;BME280;37452;51.938;4.624;2022-09-27T08:05:55;76182.53;;;-142.75;100.00
41632;BME280;37452;51.938;4.624;2022-09-27T08:08:20;76176.63;;;-142.75;100.00
41632;BME280;37452;51.938;4.624;2022-09-27T08:10:46;76178.59;;;-142.75;100.00
41632;BME280;37452;51.938;4.624;2022-09-27T08:13:11;76168.75;;;-142.75;100.00
41632;BME280;37452;51.938;4.624;2022-09-27T08:15:37;76172.69;;;-142.75;100.00
41632;BME280;37452;51.938;4.624;2022-09-27T08:18:05;76180.56;;;-142.75;100.00
41632;BME280;37452;51.938;4.624;2022-09-27T08:20:31;76196.31;;;-142.75;100.00
41632;BME280;37452;51.938;4.624;2022-09-27T08:22:57;76204.16;;;-142.75;100.00
41632;BME280;37452;51.938;4.624;2022-09-27T08:25:23;76208.09;;;-142.75;100.00
41632;BME280;37452;51.938;4.624;2022-09-27T08:27:56;76196.31;;;-142.75;100.00
41632;BME280;37452;51.938;4.624;2022-09-27T08:30:21;76202.19;;;-142.75;100.00
41632;BME280;37452;51.938;4.624;2022-09-27T08:32:47;76206.13;;;-142.75;100.00
41632;BME280;37452;51.938;4.624;2022-09-27T08:35:12;76194.34;;;-142.75;100.00
41632;BME280;37452;51.938;4.624;2022-09-27T08:37:39;76204.16;;;-142.75;100.00
41632;BME280;37452;51.938;4.624;2022-09-27T08:40:04;76184.50;;;-142.75;100.00
41632;BME280;37452;51.938;4.624;2022-09-27T08:42:34;76176.63;;;-142.75;100.00
41632;BME280;37452;51.938;4.624;2022-09-27T08:45:21;76190.41;;;-142.75;100.00
41632;BME280;37452;51.938;4.624;2022-09-27T08:47:59;76200.25;;;-142.75;100.00
41632;BME280;37452;51.938;4.624;2022-09-27T08:52:54;76210.06;;;-142.75;100.00
41632;BME280;37452;51.938;4.624;2022-09-27T08:57:47;76223.84;;;-142.75;100.00
41632;BME280;37452;51.938;4.624;2022-09-27T09:00:14;76227.78;;;-142.75;100.00
41632;BME280;37452;51.938;4.624;2022-09-27T09:02:40;76225.81;;;-142.75;100.00
41632;BME280;37452;51.938;4.624;2022-09-27T09:05:06;76223.84;;;-142.75;100.00
41632;BME280;37452;51.938;4.624;2022-09-27T09:13:00;76212.03;;;-142.75;100.00
41632;BME280;37452;51.938;4.624;2022-09-27T09:15:43;76194.34;;;-142.75;100.00
41632;BME280;37452;51.938;4.624;2022-09-27T09:31:01;76166.78;;;-142.75;100.00
41632;BME280;37452;51.938;4.624;2022-09-27T09:33:31;76184.50;;;-142.75;100.00
41632;BME280;37452;51.938;4.624;2022-09-27T09:36:03;76200.25;;;-142.75;100.00
41632;BME280;37452;51.938;4.624;2022-09-27T09:46:06;76204.16;;;-142.75;100.00
41632;BME280;37452;51.938;4.624;2022-09-27T09:51:32;76219.91;;;-142.75;100.00
41632;BME280;37452;51.938;4.624;2022-09-27T09:54:07;76225.81;;;-142.75;100.00
41632;BME280;37452;51.938;4.624;2022-09-27T09:56:40;76255.34;;;-142.75;100.00
41632;BME280;37452;51.938;4.624;2022-09-27T09:59:17;76251.41;;;-142.75;100.00
41632;BME280;37452;51.938;4.624;2022-09-27T10:01:45;76273.06;;;-142.75;100.00
41632;BME280;37452;51.938;4.624;2022-09-27T10:04:22;76275.03;;;-142.75;100.00
41632;BME280;37452;51.938;4.624;2022-09-27T10:06:48;76288.81;;;-142.75;100.00
41632;BME280;37452;51.938;4.624;2022-09-27T10:09:17;76302.59;;;-142.75;100.00
41632;BME280;37452;51.938;4.624;2022-09-27T10:11:46;76302.59;;;-142.75;100.00
41632;BME280;37452;51.938;4.624;2022-09-27T10:14:13;76300.63;;;-142.75;100.00
41632;BME280;37452;51.938;4.624;2022-09-27T10:16:40;76306.53;;;-142.75;100.00
41632;BME280;37452;51.938;4.624;2022-09-27T10:19:07;76308.50;;;-142.75;100.00
41632;BME280;37452;51.938;4.624;2022-09-27T10:21:33;76302.59;;;-142.75;100.00
41632;BME280;37452;51.938;4.624;2022-09-27T10:24:01;76290.78;;;-142.75;100.00
41632;BME280;37452;51.938;4.624;2022-09-27T10:26:28;76267.16;;;-142.75;100.00
41632;BME280;37452;51.938;4.624;2022-09-27T10:28:54;76277.00;;;-142.75;100.00
41632;BME280;37452;51.938;4.624;2022-09-27T10:31:19;76286.84;;;-142.75;100.00
41632;BME280;37452;51.938;4.624;2022-09-27T10:33:55;76282.91;;;-142.75;100.00
41632;BME280;37452;51.938;4.624;2022-09-27T10:36:23;76286.84;;;-142.75;100.00
41632;BME280;37452;51.938;4.624;2022-09-27T10:38:53;76290.78;;;-142.75;100.00
41632;BME280;37452;51.938;4.624;2022-09-27T10:43:47;76282.91;;;-142.75;100.00
41632;BME280;37452;51.938;4.624;2022-09-27T10:48:40;76294.72;;;-142.75;100.00
41632;BME280;37452;51.938;4.624;2022-09-27T10:51:16;76278.97;;;-142.75;100.00
41632;BME280;37452;51.938;4.624;2022-09-27T10:53:44;76282.91;;;-142.75;100.00
41632;BME280;37452;51.938;4.624;2022-09-27T10:56:17;76271.09;;;-142.75;100.00
41632;BME280;37452;51.938;4.624;2022-09-27T10:58:44;76298.66;;;-142.75;100.00
41632;BME280;37452;51.938;4.624;2022-09-27T11:01:09;76280.94;;;-142.75;100.00
41632;BME280;37452;51.938;4.624;2022-09-27T11:03:37;76275.03;;;-142.75;100.00
41632;BME280;37452;51.938;4.624;2022-09-27T11:08:47;76294.72;;;-142.75;100.00
41632;BME280;37452;51.938;4.624;2022-09-27T11:13:38;76278.97;;;-142.75;100.00
41632;BME280;37452;51.938;4.624;2022-09-27T11:24:07;76259.28;;;-142.75;100.00
41632;BME280;37452;51.938;4.624;2022-09-27T11:26:41;76251.41;;;-142.75;100.00
41632;BME280;37452;51.938;4.624;2022-09-27T11:32:01;76269.13;;;-142.75;100.00
41632;BME280;37452;51.938;4.624;2022-09-27T11:39:35;76233.69;;;-142.75;100.00
41632;BME280;37452;51.938;4.624;2022-09-27T11:42:09;76225.81;;;-142.75;100.00
41632;BME280;37452;51.938;4.624;2022-09-27T11:49:57;76208.09;;;-142.75;100.00
41632;BME280;37452;51.938;4.624;2022-09-27T11:57:41;76206.13;;;-142.75;100.00
41632;BME280;37452;51.938;4.624;2022-09-27T12:10:18;76160.88;;;-142.75;100.00
41632;BME280;37452;51.938;4.624;2022-09-27T12:12:49;76145.13;;;-142.75;100.00
41632;BME280;37452;51.938;4.624;2022-09-27T12:17:41;76125.44;;;-142.75;100.00
41632;BME280;37452;51.938;4.624;2022-09-27T12:20:21;76117.56;;;-142.75;100.00
41632;BME280;37452;51.938;4.624;2022-09-27T12:22:59;76113.63;;;-142.75;100.00
41632;BME280;37452;51.938;4.624;2022-09-27T12:25:26;76109.69;;;-142.75;100.00
41632;BME280;37452;51.938;4.624;2022-09-27T12:27:57;76074.25;;;-142.75;100.00
41632;BME280;37452;51.938;4.624;2022-09-27T12:30:25;76052.63;;;-142.75;100.00
41632;BME280;37452;51.938;4.624;2022-09-27T12:33:00;76038.84;;;-142.75;100.00
41632;BME280;37452;51.938;4.624;2022-09-27T12:35:29;75995.53;;;-142.75;100.00
41632;BME280;37452;51.938;4.624;2022-09-27T12:40:24;75944.38;;;-142.75;100.00
41632;BME280;37452;51.938;4.624;2022-09-27T12:48:01;75775.09;;;-142.75;100.00
41632;BME280;37452;51.938;4.624;2022-09-27T12:53:00;75759.38;;;-142.75;100.00
41632;BME280;37452;51.938;4.624;2022-09-27T13:11:18;75779.03;;;-142.75;100.00
41632;BME280;37452;51.938;4.624;2022-09-27T13:13:47;75802.66;;;-142.75;100.00
41632;BME280;37452;51.938;4.624;2022-09-27T13:16:13;75826.28;;;-142.75;100.00
41632;BME280;37452;51.938;4.624;2022-09-27T13:18:48;75849.91;;;-142.75;100.00
41632;BME280;37452;51.938;4.624;2022-09-27T13:21:52;75865.63;;;-142.75;100.00
41632;BME280;37452;51.938;4.624;2022-09-27T13:24:27;75861.69;;;-142.75;100.00
41632;BME280;37452;51.938;4.624;2022-09-27T13:26:52;75883.34;;;-142.75;100.00
41632;BME280;37452;51.938;4.624;2022-09-27T13:29:20;75910.91;;;-142.75;100.00
41632;BME280;37452;51.938;4.624;2022-09-27T13:34:36;75897.13;;;-142.75;100.00
41632;BME280;37452;51.938;4.624;2022-09-27T13:42:39;75899.09;;;-142.75;100.00
41632;BME280;37452;51.938;4.624;2022-09-27T13:47:39;75897.13;;;-142.75;100.00
41632;BME280;37452;51.938;4.624;2022-09-27T13:50:28;75899.09;;;-142.75;100.00
41632;BME280;37452;51.938;4.624;2022-09-27T13:53:17;75905.00;;;-142.75;100.00
41632;BME280;37452;51.938;4.624;2022-09-27T13:55:44;75897.13;;;-142.75;100.00
41632;BME280;37452;51.938;4.624;2022-09-27T14:00:57;75885.31;;;-142.75;100.00
41632;BME280;37452;51.938;4.624;2022-09-27T14:03:30;75873.50;;;-142.75;100.00
41632;BME280;37452;51.938;4.624;2022-09-27T14:06:00;75859.72;;;-142.75;100.00
41632;BME280;37452;51.938;4.624;2022-09-27T14:08:42;75849.91;;;-142.75;100.00
41632;BME280;37452;51.938;4.624;2022-09-27T14:11:10;75855.81;;;-142.75;100.00
41632;BME280;37452;51.938;4.624;2022-09-27T14:13:36;75842.03;;;-142.75;100.00
41632;BME280;37452;51.938;4.624;2022-09-27T14:16:02;75838.09;;;-142.75;100.00
41632;BME280;37452;51.938;4.624;2022-09-27T14:18:28;75822.34;;;-142.75;100.00
41632;BME280;37452;51.938;4.624;2022-09-27T14:20:55;75812.50;;;-142.75;100.00
41632;BME280;37452;51.938;4.624;2022-09-27T14:23:33;75818.41;;;-142.75;100.00
41632;BME280;37452;51.938;4.624;2022-09-27T14:25:58;75830.22;;;-142.75;100.00
41632;BME280;37452;51.938;4.624;2022-09-27T14:28:27;75824.31;;;-142.75;100.00
41632;BME280;37452;51.938;4.624;2022-09-27T14:33:48;75822.34;;;-142.75;100.00
41632;BME280;37452;51.938;4.624;2022-09-27T14:36:19;75842.03;;;-142.75;100.00
41632;BME280;37452;51.938;4.624;2022-09-27T14:39:13;75857.78;;;-142.75;100.00
41632;BME280;37452;51.938;4.624;2022-09-27T14:41:39;75859.72;;;-142.75;100.00
41632;BME280;37452;51.938;4.624;2022-09-27T14:44:09;75893.19;;;-142.75;100.00
41632;BME280;37452;51.938;4.624;2022-09-27T14:46:36;75901.06;;;-142.75;100.00
41632;BME280;37452;51.938;4.624;2022-09-27T14:49:10;75916.81;;;-142.75;100.00
41632;BME280;37452;51.938;4.624;2022-09-27T14:51:35;75908.94;;;-142.75;100.00
41632;BME280;37452;51.938;4.624;2022-09-27T14:54:00;75944.38;;;-142.75;100.00
41632;BME280;37452;51.938;4.624;2022-09-27T14:56:30;75952.25;;;-142.75;100.00
41632;BME280;37452;51.938;4.624;2022-09-27T14:58:59;75954.22;;;-142.75;100.00
41632;BME280;37452;51.938;4.624;2022-09-27T15:01:26;75960.13;;;-142.75;100.00
41632;BME280;37452;51.938;4.624;2022-09-27T15:03:52;75964.03;;;-142.75;100.00
41632;BME280;37452;51.938;4.624;2022-09-27T15:06:17;75971.91;;;-142.75;100.00
41632;BME280;37452;51.938;4.624;2022-09-27T15:08:44;75975.84;;;-142.75;100.00
41632;BME280;37452;51.938;4.624;2022-09-27T15:11:13;75989.63;;;-142.75;100.00
41632;BME280;37452;51.938;4.624;2022-09-27T15:13:38;76003.41;;;-142.75;100.00